sensor_id;sensor_type;location;lat;lon;timestamp;P1;durP1;ratioP1;P2;durP2;ratioP2
50605;SDS011;36557;53.572;10.170;2022-10-18T00:01:39;12.57;;;6.00;;
50605;SDS011;36557;53.572;10.170;2022-10-18T00:04:05;7.63;;;5.35;;
50605;SDS011;36557;53.572;10.170;2022-10-18T00:06:30;9.95;;;5.82;;
50605;SDS011;36557;53.572;10.170;2022-10-18T00:08:56;8.15;;;4.97;;
50605;SDS011;36557;53.572;10.170;2022-10-18T00:11:25;10.77;;;5.65;;
50605;SDS011;36557;53.572;10.170;2022-10-18T00:13:50;12.50;;;6.00;;
50605;SDS011;36557;53.572;10.170;2022-10-18T00:16:17;10.35;;;5.32;;
50605;SDS011;36557;53.572;10.170;2022-10-18T00:18:43;7.38;;;5.78;;
50605;SDS011;36557;53.572;10.170;2022-10-18T00:21:16;10.23;;;5.68;;
50605;SDS011;36557;53.572;10.170;2022-10-18T00:23:44;10.18;;;6.03;;
50605;SDS011;36557;53.572;10.170;2022-10-18T00:29:05;10.40;;;5.80;;
50605;SDS011;36557;53.572;10.170;2022-10-18T00:31:32;13.82;;;6.00;;
50605;SDS011;36557;53.572;10.170;2022-10-18T00:34:04;8.10;;;5.35;;
50605;SDS011;36557;53.572;10.170;2022-10-18T00:36:32;11.05;;;5.93;;
50605;SDS011;36557;53.572;10.170;2022-10-18T00:38:58;10.98;;;6.05;;
50605;SDS011;36557;53.572;10.170;2022-10-18T00:41:26;11.13;;;6.05;;
50605;SDS011;36557;53.572;10.170;2022-10-18T00:43:57;14.40;;;6.57;;
50605;SDS011;36557;53.572;10.170;2022-10-18T00:46:24;13.32;;;6.72;;
50605;SDS011;36557;53.572;10.170;2022-10-18T00:48:52;12.65;;;6.75;;
50605;SDS011;36557;53.572;10.170;2022-10-18T00:51:19;11.60;;;6.45;;
50605;SDS011;36557;53.572;10.170;2022-10-18T00:53:47;10.10;;;6.70;;
50605;SDS011;36557;53.572;10.170;2022-10-18T00:56:13;8.38;;;6.35;;
50605;SDS011;36557;53.572;10.170;2022-10-18T00:58:39;14.85;;;7.60;;
50605;SDS011;36557;53.572;10.170;2022-10-18T01:01:07;11.90;;;7.60;;
50605;SDS011;36557;53.572;10.170;2022-10-18T01:03:33;10.70;;;6.95;;
50605;SDS011;36557;53.572;10.170;2022-10-18T01:06:00;13.30;;;7.20;;
50605;SDS011;36557;53.572;10.170;2022-10-18T01:08:39;14.13;;;7.47;;
50605;SDS011;36557;53.572;10.170;2022-10-18T01:11:20;11.23;;;6.03;;
50605;SDS011;36557;53.572;10.170;2022-10-18T01:14:34;19.08;;;6.70;;
50605;SDS011;36557;53.572;10.170;2022-10-18T01:16:56;17.02;;;7.35;;
50605;SDS011;36557;53.572;10.170;2022-10-18T01:20:08;18.13;;;7.82;;
50605;SDS011;36557;53.572;10.170;2022-10-18T01:22:45;15.15;;;7.80;;
50605;SDS011;36557;53.572;10.170;2022-10-18T01:31:05;15.38;;;7.93;;
50605;SDS011;36557;53.572;10.170;2022-10-18T01:33:40;14.30;;;8.38;;
50605;SDS011;36557;53.572;10.170;2022-10-18T01:38:38;14.00;;;7.88;;
50605;SDS011;36557;53.572;10.170;2022-10-18T01:41:06;16.35;;;8.35;;
50605;SDS011;36557;53.572;10.170;2022-10-18T01:43:35;14.68;;;7.85;;
50605;SDS011;36557;53.572;10.170;2022-10-18T01:46:03;13.82;;;7.28;;
50605;SDS011;36557;53.572;10.170;2022-10-18T01:48:30;11.10;;;6.40;;
50605;SDS011;36557;53.572;10.170;2022-10-18T01:50:57;14.80;;;7.70;;
50605;SDS011;36557;53.572;10.170;2022-10-18T01:53:24;12.07;;;7.07;;
50605;SDS011;36557;53.572;10.170;2022-10-18T01:56:15;14.07;;;8.25;;
50605;SDS011;36557;53.572;10.170;2022-10-18T01:58:47;11.60;;;7.00;;
50605;SDS011;36557;53.572;10.170;2022-10-18T02:01:22;11.85;;;7.25;;
50605;SDS011;36557;53.572;10.170;2022-10-18T02:03:55;10.75;;;6.18;;
50605;SDS011;36557;53.572;10.170;2022-10-18T02:06:33;10.13;;;6.00;;
50605;SDS011;36557;53.572;10.170;2022-10-18T02:09:03;11.87;;;6.60;;
50605;SDS011;36557;53.572;10.170;2022-10-18T02:11:35;14.52;;;7.18;;
50605;SDS011;36557;53.572;10.170;2022-10-18T02:14:07;14.43;;;7.85;;
50605;SDS011;36557;53.572;10.170;2022-10-18T02:16:40;10.30;;;6.70;;
50605;SDS011;36557;53.572;10.170;2022-10-18T02:21:40;12.38;;;6.90;;
50605;SDS011;36557;53.572;10.170;2022-10-18T02:24:07;21.08;;;8.27;;
50605;SDS011;36557;53.572;10.170;2022-10-18T02:26:34;12.38;;;7.05;;
50605;SDS011;36557;53.572;10.170;2022-10-18T02:29:00;10.98;;;6.72;;
50605;SDS011;36557;53.572;10.170;2022-10-18T02:34:03;10.23;;;7.38;;
50605;SDS011;36557;53.572;10.170;2022-10-18T02:36:32;9.90;;;6.78;;
50605;SDS011;36557;53.572;10.170;2022-10-18T02:39:03;15.85;;;6.43;;
50605;SDS011;36557;53.572;10.170;2022-10-18T02:41:35;13.70;;;7.72;;
50605;SDS011;36557;53.572;10.170;2022-10-18T02:44:01;16.77;;;7.70;;
50605;SDS011;36557;53.572;10.170;2022-10-18T02:46:27;9.60;;;6.45;;
50605;SDS011;36557;53.572;10.170;2022-10-18T02:48:52;9.88;;;6.50;;
50605;SDS011;36557;53.572;10.170;2022-10-18T02:51:18;13.43;;;7.32;;
50605;SDS011;36557;53.572;10.170;2022-10-18T02:53:44;11.00;;;6.53;;
50605;SDS011;36557;53.572;10.170;2022-10-18T02:56:09;13.90;;;7.85;;
50605;SDS011;36557;53.572;10.170;2022-10-18T02:58:35;14.52;;;7.63;;
50605;SDS011;36557;53.572;10.170;2022-10-18T03:01:01;12.32;;;7.05;;
50605;SDS011;36557;53.572;10.170;2022-10-18T03:03:27;10.10;;;7.35;;
50605;SDS011;36557;53.572;10.170;2022-10-18T03:05:53;13.25;;;6.90;;
50605;SDS011;36557;53.572;10.170;2022-10-18T03:08:18;12.32;;;7.05;;
50605;SDS011;36557;53.572;10.170;2022-10-18T03:10:46;12.05;;;7.15;;
50605;SDS011;36557;53.572;10.170;2022-10-18T03:13:12;16.70;;;7.65;;
50605;SDS011;36557;53.572;10.170;2022-10-18T03:15:38;14.38;;;8.05;;
50605;SDS011;36557;53.572;10.170;2022-10-18T03:18:04;14.38;;;7.95;;
50605;SDS011;36557;53.572;10.170;2022-10-18T03:20:29;17.38;;;10.07;;
50605;SDS011;36557;53.572;10.170;2022-10-18T03:22:55;19.45;;;9.07;;
50605;SDS011;36557;53.572;10.170;2022-10-18T03:25:21;17.58;;;10.63;;
50605;SDS011;36557;53.572;10.170;2022-10-18T03:27:47;18.45;;;10.80;;
50605;SDS011;36557;53.572;10.170;2022-10-18T03:30:12;19.08;;;10.05;;
50605;SDS011;36557;53.572;10.170;2022-10-18T03:32:39;14.95;;;9.75;;
50605;SDS011;36557;53.572;10.170;2022-10-18T03:35:05;16.05;;;9.20;;
50605;SDS011;36557;53.572;10.170;2022-10-18T03:37:32;15.20;;;9.65;;
50605;SDS011;36557;53.572;10.170;2022-10-18T03:39:58;15.57;;;9.68;;
50605;SDS011;36557;53.572;10.170;2022-10-18T03:42:23;16.50;;;10.18;;
50605;SDS011;36557;53.572;10.170;2022-10-18T03:44:49;18.45;;;10.02;;
50605;SDS011;36557;53.572;10.170;2022-10-18T03:47:15;20.83;;;10.60;;
50605;SDS011;36557;53.572;10.170;2022-10-18T03:49:40;17.92;;;9.63;;
50605;SDS011;36557;53.572;10.170;2022-10-18T03:52:06;17.55;;;10.52;;
50605;SDS011;36557;53.572;10.170;2022-10-18T03:54:32;18.85;;;11.07;;
50605;SDS011;36557;53.572;10.170;2022-10-18T03:56:57;18.08;;;10.60;;
50605;SDS011;36557;53.572;10.170;2022-10-18T03:59:23;18.55;;;9.93;;
50605;SDS011;36557;53.572;10.170;2022-10-18T04:01:49;17.55;;;9.82;;
50605;SDS011;36557;53.572;10.170;2022-10-18T04:04:14;22.02;;;10.40;;
50605;SDS011;36557;53.572;10.170;2022-10-18T04:06:40;17.02;;;10.02;;
50605;SDS011;36557;53.572;10.170;2022-10-18T04:09:06;20.00;;;10.60;;
50605;SDS011;36557;53.572;10.170;2022-10-18T04:11:32;17.25;;;10.07;;
50605;SDS011;36557;53.572;10.170;2022-10-18T04:13:57;15.40;;;9.52;;
50605;SDS011;36557;53.572;10.170;2022-10-18T04:16:23;16.52;;;9.73;;
50605;SDS011;36557;53.572;10.170;2022-10-18T04:18:49;18.45;;;9.25;;
50605;SDS011;36557;53.572;10.170;2022-10-18T04:21:15;16.60;;;10.02;;
50605;SDS011;36557;53.572;10.170;2022-10-18T04:23:41;18.58;;;10.30;;
50605;SDS011;36557;53.572;10.170;2022-10-18T04:26:06;16.27;;;10.57;;
50605;SDS011;36557;53.572;10.170;2022-10-18T04:28:32;21.33;;;11.73;;
50605;SDS011;36557;53.572;10.170;2022-10-18T04:30:59;16.67;;;10.20;;
50605;SDS011;36557;53.572;10.170;2022-10-18T04:33:25;19.90;;;9.95;;
50605;SDS011;36557;53.572;10.170;2022-10-18T04:35:51;12.25;;;8.68;;
50605;SDS011;36557;53.572;10.170;2022-10-18T04:38:18;14.88;;;8.75;;
50605;SDS011;36557;53.572;10.170;2022-10-18T04:40:44;21.45;;;10.02;;
50605;SDS011;36557;53.572;10.170;2022-10-18T04:43:10;14.60;;;9.60;;
50605;SDS011;36557;53.572;10.170;2022-10-18T04:45:36;17.63;;;10.13;;
50605;SDS011;36557;53.572;10.170;2022-10-18T04:48:02;14.93;;;9.63;;
50605;SDS011;36557;53.572;10.170;2022-10-18T04:50:28;17.77;;;8.35;;
50605;SDS011;36557;53.572;10.170;2022-10-18T04:52:53;12.18;;;8.75;;
50605;SDS011;36557;53.572;10.170;2022-10-18T04:55:19;18.98;;;9.85;;
50605;SDS011;36557;53.572;10.170;2022-10-18T04:57:45;18.13;;;10.68;;
50605;SDS011;36557;53.572;10.170;2022-10-18T05:00:10;13.07;;;9.07;;
50605;SDS011;36557;53.572;10.170;2022-10-18T05:02:37;17.80;;;9.25;;
50605;SDS011;36557;53.572;10.170;2022-10-18T05:05:02;23.15;;;10.70;;
50605;SDS011;36557;53.572;10.170;2022-10-18T05:07:28;24.27;;;12.88;;
50605;SDS011;36557;53.572;10.170;2022-10-18T05:09:54;21.35;;;11.57;;
50605;SDS011;36557;53.572;10.170;2022-10-18T05:12:20;18.35;;;10.02;;
50605;SDS011;36557;53.572;10.170;2022-10-18T05:14:46;23.60;;;15.02;;
50605;SDS011;36557;53.572;10.170;2022-10-18T05:17:12;28.92;;;15.02;;
50605;SDS011;36557;53.572;10.170;2022-10-18T05:19:38;17.60;;;10.77;;
50605;SDS011;36557;53.572;10.170;2022-10-18T05:22:04;17.30;;;10.15;;
50605;SDS011;36557;53.572;10.170;2022-10-18T05:24:29;20.95;;;10.65;;
50605;SDS011;36557;53.572;10.170;2022-10-18T05:26:55;16.27;;;9.65;;
50605;SDS011;36557;53.572;10.170;2022-10-18T05:29:21;17.58;;;10.15;;
50605;SDS011;36557;53.572;10.170;2022-10-18T05:31:48;23.52;;;11.35;;
50605;SDS011;36557;53.572;10.170;2022-10-18T05:34:14;20.60;;;10.80;;
50605;SDS011;36557;53.572;10.170;2022-10-18T05:36:40;19.58;;;10.63;;
50605;SDS011;36557;53.572;10.170;2022-10-18T05:39:06;18.58;;;10.32;;
50605;SDS011;36557;53.572;10.170;2022-10-18T05:41:32;16.77;;;10.13;;
50605;SDS011;36557;53.572;10.170;2022-10-18T05:43:58;20.67;;;10.73;;
50605;SDS011;36557;53.572;10.170;2022-10-18T05:46:27;18.30;;;10.38;;
50605;SDS011;36557;53.572;10.170;2022-10-18T05:48:53;22.92;;;10.95;;
50605;SDS011;36557;53.572;10.170;2022-10-18T05:51:18;18.63;;;11.02;;
50605;SDS011;36557;53.572;10.170;2022-10-18T05:53:44;17.88;;;11.55;;
50605;SDS011;36557;53.572;10.170;2022-10-18T05:56:10;18.92;;;10.75;;
50605;SDS011;36557;53.572;10.170;2022-10-18T05:58:36;18.98;;;11.68;;
50605;SDS011;36557;53.572;10.170;2022-10-18T06:01:03;22.73;;;12.85;;
50605;SDS011;36557;53.572;10.170;2022-10-18T06:03:29;23.60;;;12.90;;
50605;SDS011;36557;53.572;10.170;2022-10-18T06:05:59;22.45;;;13.70;;
50605;SDS011;36557;53.572;10.170;2022-10-18T06:08:30;26.58;;;13.07;;
50605;SDS011;36557;53.572;10.170;2022-10-18T06:10:56;25.45;;;14.38;;
50605;SDS011;36557;53.572;10.170;2022-10-18T06:13:22;25.63;;;14.23;;
50605;SDS011;36557;53.572;10.170;2022-10-18T06:15:48;27.67;;;15.18;;
50605;SDS011;36557;53.572;10.170;2022-10-18T06:18:13;34.00;;;17.27;;
50605;SDS011;36557;53.572;10.170;2022-10-18T06:20:39;31.85;;;17.30;;
50605;SDS011;36557;53.572;10.170;2022-10-18T06:23:05;25.25;;;15.45;;
50605;SDS011;36557;53.572;10.170;2022-10-18T06:25:31;35.67;;;15.98;;
50605;SDS011;36557;53.572;10.170;2022-10-18T06:27:56;29.40;;;14.75;;
50605;SDS011;36557;53.572;10.170;2022-10-18T06:30:22;28.33;;;15.13;;
50605;SDS011;36557;53.572;10.170;2022-10-18T06:32:48;25.63;;;15.40;;
50605;SDS011;36557;53.572;10.170;2022-10-18T06:35:13;26.20;;;15.48;;
50605;SDS011;36557;53.572;10.170;2022-10-18T06:37:39;27.83;;;15.63;;
50605;SDS011;36557;53.572;10.170;2022-10-18T06:40:05;32.10;;;15.82;;
50605;SDS011;36557;53.572;10.170;2022-10-18T06:42:31;28.02;;;15.50;;
50605;SDS011;36557;53.572;10.170;2022-10-18T06:44:57;26.17;;;14.50;;
50605;SDS011;36557;53.572;10.170;2022-10-18T06:47:24;24.15;;;14.43;;
50605;SDS011;36557;53.572;10.170;2022-10-18T06:49:50;28.63;;;15.30;;
50605;SDS011;36557;53.572;10.170;2022-10-18T06:52:16;28.23;;;14.02;;
50605;SDS011;36557;53.572;10.170;2022-10-18T06:54:44;24.17;;;13.23;;
50605;SDS011;36557;53.572;10.170;2022-10-18T06:57:10;23.58;;;13.95;;
50605;SDS011;36557;53.572;10.170;2022-10-18T06:59:35;23.08;;;13.20;;
50605;SDS011;36557;53.572;10.170;2022-10-18T07:02:01;24.45;;;14.27;;
50605;SDS011;36557;53.572;10.170;2022-10-18T07:04:27;29.15;;;13.43;;
50605;SDS011;36557;53.572;10.170;2022-10-18T07:06:54;27.30;;;14.77;;
50605;SDS011;36557;53.572;10.170;2022-10-18T07:09:20;24.27;;;13.00;;
50605;SDS011;36557;53.572;10.170;2022-10-18T07:11:46;22.20;;;14.15;;
50605;SDS011;36557;53.572;10.170;2022-10-18T07:14:11;21.77;;;12.95;;
50605;SDS011;36557;53.572;10.170;2022-10-18T07:16:37;24.20;;;13.73;;
50605;SDS011;36557;53.572;10.170;2022-10-18T07:19:03;22.52;;;12.57;;
50605;SDS011;36557;53.572;10.170;2022-10-18T07:21:28;23.27;;;12.77;;
50605;SDS011;36557;53.572;10.170;2022-10-18T07:23:55;28.20;;;12.98;;
50605;SDS011;36557;53.572;10.170;2022-10-18T07:26:26;22.25;;;12.07;;
50605;SDS011;36557;53.572;10.170;2022-10-18T07:28:55;19.10;;;11.27;;
50605;SDS011;36557;53.572;10.170;2022-10-18T07:31:25;23.48;;;12.05;;
50605;SDS011;36557;53.572;10.170;2022-10-18T07:33:51;31.13;;;14.10;;
50605;SDS011;36557;53.572;10.170;2022-10-18T07:36:17;18.65;;;10.77;;
50605;SDS011;36557;53.572;10.170;2022-10-18T07:38:45;19.70;;;9.77;;
50605;SDS011;36557;53.572;10.170;2022-10-18T07:41:11;22.80;;;9.63;;
50605;SDS011;36557;53.572;10.170;2022-10-18T07:43:41;18.95;;;10.60;;
50605;SDS011;36557;53.572;10.170;2022-10-18T07:46:11;18.88;;;9.73;;
50605;SDS011;36557;53.572;10.170;2022-10-18T07:48:38;19.75;;;10.40;;
50605;SDS011;36557;53.572;10.170;2022-10-18T07:51:04;21.30;;;10.32;;
50605;SDS011;36557;53.572;10.170;2022-10-18T07:53:30;23.55;;;10.63;;
50605;SDS011;36557;53.572;10.170;2022-10-18T07:55:59;21.83;;;11.77;;
50605;SDS011;36557;53.572;10.170;2022-10-18T07:58:25;20.05;;;11.45;;
50605;SDS011;36557;53.572;10.170;2022-10-18T08:00:51;21.20;;;10.93;;
50605;SDS011;36557;53.572;10.170;2022-10-18T08:03:17;21.35;;;10.63;;
50605;SDS011;36557;53.572;10.170;2022-10-18T08:05:49;20.88;;;11.15;;
50605;SDS011;36557;53.572;10.170;2022-10-18T08:08:16;21.92;;;12.90;;
50605;SDS011;36557;53.572;10.170;2022-10-18T08:10:42;23.38;;;11.32;;
50605;SDS011;36557;53.572;10.170;2022-10-18T08:13:08;17.17;;;10.55;;
50605;SDS011;36557;53.572;10.170;2022-10-18T08:15:34;18.80;;;10.93;;
50605;SDS011;36557;53.572;10.170;2022-10-18T08:18:00;18.65;;;11.38;;
50605;SDS011;36557;53.572;10.170;2022-10-18T08:20:25;23.20;;;12.00;;
50605;SDS011;36557;53.572;10.170;2022-10-18T08:22:51;23.88;;;11.23;;
50605;SDS011;36557;53.572;10.170;2022-10-18T08:25:17;22.35;;;12.02;;
50605;SDS011;36557;53.572;10.170;2022-10-18T08:27:43;21.50;;;12.93;;
50605;SDS011;36557;53.572;10.170;2022-10-18T08:30:09;22.25;;;11.05;;
50605;SDS011;36557;53.572;10.170;2022-10-18T08:32:35;24.60;;;11.50;;
50605;SDS011;36557;53.572;10.170;2022-10-18T08:35:00;18.80;;;11.48;;
50605;SDS011;36557;53.572;10.170;2022-10-18T08:37:26;18.60;;;10.65;;
50605;SDS011;36557;53.572;10.170;2022-10-18T08:39:52;18.80;;;11.25;;
50605;SDS011;36557;53.572;10.170;2022-10-18T08:45:05;25.35;;;12.57;;
50605;SDS011;36557;53.572;10.170;2022-10-18T08:47:41;22.13;;;12.85;;
50605;SDS011;36557;53.572;10.170;2022-10-18T08:55:25;20.50;;;13.02;;
50605;SDS011;36557;53.572;10.170;2022-10-18T08:58:01;23.08;;;12.80;;
50605;SDS011;36557;53.572;10.170;2022-10-18T09:00:35;19.77;;;11.85;;
50605;SDS011;36557;53.572;10.170;2022-10-18T09:16:49;20.70;;;11.68;;
50605;SDS011;36557;53.572;10.170;2022-10-18T09:21:50;18.05;;;10.25;;
50605;SDS011;36557;53.572;10.170;2022-10-18T09:26:55;20.38;;;11.35;;
50605;SDS011;36557;53.572;10.170;2022-10-18T09:32:27;22.17;;;11.85;;
50605;SDS011;36557;53.572;10.170;2022-10-18T09:34:56;20.00;;;11.05;;
50605;SDS011;36557;53.572;10.170;2022-10-18T09:37:41;18.98;;;10.38;;
50605;SDS011;36557;53.572;10.170;2022-10-18T09:40:14;21.48;;;11.13;;
50605;SDS011;36557;53.572;10.170;2022-10-18T09:42:48;19.70;;;10.43;;
50605;SDS011;36557;53.572;10.170;2022-10-18T09:45:22;18.55;;;8.85;;
50605;SDS011;36557;53.572;10.170;2022-10-18T09:47:54;18.88;;;8.75;;
50605;SDS011;36557;53.572;10.170;2022-10-18T09:58:40;22.92;;;8.10;;
50605;SDS011;36557;53.572;10.170;2022-10-18T10:01:20;14.20;;;7.57;;
50605;SDS011;36557;53.572;10.170;2022-10-18T10:03:52;18.25;;;8.00;;
50605;SDS011;36557;53.572;10.170;2022-10-18T10:06:28;13.57;;;6.10;;
50605;SDS011;36557;53.572;10.170;2022-10-18T10:11:42;15.30;;;6.18;;
50605;SDS011;36557;53.572;10.170;2022-10-18T10:14:16;11.43;;;4.70;;
50605;SDS011;36557;53.572;10.170;2022-10-18T10:19:36;11.73;;;4.20;;
50605;SDS011;36557;53.572;10.170;2022-10-18T10:22:08;8.45;;;3.97;;
50605;SDS011;36557;53.572;10.170;2022-10-18T10:27:30;8.13;;;3.67;;
50605;SDS011;36557;53.572;10.170;2022-10-18T10:32:58;8.95;;;3.53;;
50605;SDS011;36557;53.572;10.170;2022-10-18T10:37:54;8.50;;;4.07;;
50605;SDS011;36557;53.572;10.170;2022-10-18T10:40:22;9.27;;;4.20;;
50605;SDS011;36557;53.572;10.170;2022-10-18T10:48:54;8.73;;;4.25;;
50605;SDS011;36557;53.572;10.170;2022-10-18T10:51:33;10.15;;;3.88;;
50605;SDS011;36557;53.572;10.170;2022-10-18T10:54:02;12.13;;;5.50;;
50605;SDS011;36557;53.572;10.170;2022-10-18T10:59:41;10.05;;;4.60;;
50605;SDS011;36557;53.572;10.170;2022-10-18T11:04:42;11.00;;;4.75;;
50605;SDS011;36557;53.572;10.170;2022-10-18T11:07:19;9.18;;;4.20;;
50605;SDS011;36557;53.572;10.170;2022-10-18T11:20:23;9.18;;;4.00;;
50605;SDS011;36557;53.572;10.170;2022-10-18T11:23:01;11.50;;;4.20;;
50605;SDS011;36557;53.572;10.170;2022-10-18T11:30:48;11.02;;;3.90;;
50605;SDS011;36557;53.572;10.170;2022-10-18T11:33:20;8.70;;;3.60;;
50605;SDS011;36557;53.572;10.170;2022-10-18T11:38:48;9.23;;;3.90;;
50605;SDS011;36557;53.572;10.170;2022-10-18T11:41:37;10.00;;;3.55;;
50605;SDS011;36557;53.572;10.170;2022-10-18T11:44:14;7.35;;;3.75;;
50605;SDS011;36557;53.572;10.170;2022-10-18T11:47:07;9.73;;;3.63;;
50605;SDS011;36557;53.572;10.170;2022-10-18T11:55:55;11.82;;;4.22;;
50605;SDS011;36557;53.572;10.170;2022-10-18T11:58:45;10.43;;;4.18;;
50605;SDS011;36557;53.572;10.170;2022-10-18T12:04:19;10.02;;;4.30;;
50605;SDS011;36557;53.572;10.170;2022-10-18T12:06:49;14.02;;;3.85;;
50605;SDS011;36557;53.572;10.170;2022-10-18T12:09:22;12.25;;;4.85;;
50605;SDS011;36557;53.572;10.170;2022-10-18T12:11:56;12.50;;;4.15;;
50605;SDS011;36557;53.572;10.170;2022-10-18T12:14:27;23.17;;;11.98;;
50605;SDS011;36557;53.572;10.170;2022-10-18T12:16:54;13.85;;;4.22;;
50605;SDS011;36557;53.572;10.170;2022-10-18T12:19:26;10.63;;;4.15;;
50605;SDS011;36557;53.572;10.170;2022-10-18T12:21:55;10.57;;;3.78;;
50605;SDS011;36557;53.572;10.170;2022-10-18T12:24:27;10.35;;;4.07;;
50605;SDS011;36557;53.572;10.170;2022-10-18T12:26:57;9.07;;;4.35;;
50605;SDS011;36557;53.572;10.170;2022-10-18T12:30:10;11.10;;;3.78;;
50605;SDS011;36557;53.572;10.170;2022-10-18T12:32:11;8.30;;;3.03;;
50605;SDS011;36557;53.572;10.170;2022-10-18T12:42:49;6.55;;;2.10;;
50605;SDS011;36557;53.572;10.170;2022-10-18T12:47:55;11.38;;;2.10;;
50605;SDS011;36557;53.572;10.170;2022-10-18T12:55:35;5.55;;;1.90;;
50605;SDS011;36557;53.572;10.170;2022-10-18T12:58:10;6.82;;;1.80;;
50605;SDS011;36557;53.572;10.170;2022-10-18T13:13:52;8.70;;;1.77;;
50605;SDS011;36557;53.572;10.170;2022-10-18T13:16:25;11.75;;;1.83;;
50605;SDS011;36557;53.572;10.170;2022-10-18T13:19:44;11.20;;;2.20;;
50605;SDS011;36557;53.572;10.170;2022-10-18T13:24:33;5.70;;;1.33;;
50605;SDS011;36557;53.572;10.170;2022-10-18T13:27:13;6.60;;;1.35;;
50605;SDS011;36557;53.572;10.170;2022-10-18T13:29:54;7.65;;;1.60;;
50605;SDS011;36557;53.572;10.170;2022-10-18T13:32:30;7.85;;;1.50;;
50605;SDS011;36557;53.572;10.170;2022-10-18T13:38:02;11.88;;;1.50;;
50605;SDS011;36557;53.572;10.170;2022-10-18T13:40:29;9.15;;;1.58;;
50605;SDS011;36557;53.572;10.170;2022-10-18T13:42:56;9.32;;;2.10;;
50605;SDS011;36557;53.572;10.170;2022-10-18T13:45:42;10.00;;;1.85;;
50605;SDS011;36557;53.572;10.170;2022-10-18T13:50:56;9.40;;;1.38;;
50605;SDS011;36557;53.572;10.170;2022-10-18T13:57:03;9.93;;;2.40;;
50605;SDS011;36557;53.572;10.170;2022-10-18T14:03:18;10.27;;;1.60;;
50605;SDS011;36557;53.572;10.170;2022-10-18T14:06:01;12.05;;;2.05;;
50605;SDS011;36557;53.572;10.170;2022-10-18T14:14:16;7.93;;;1.67;;
50605;SDS011;36557;53.572;10.170;2022-10-18T14:17:11;7.00;;;1.42;;
50605;SDS011;36557;53.572;10.170;2022-10-18T14:22:52;9.52;;;1.30;;
50605;SDS011;36557;53.572;10.170;2022-10-18T14:25:27;8.02;;;1.77;;
50605;SDS011;36557;53.572;10.170;2022-10-18T14:30:54;6.43;;;1.75;;
50605;SDS011;36557;53.572;10.170;2022-10-18T14:33:36;10.52;;;2.15;;
50605;SDS011;36557;53.572;10.170;2022-10-18T14:38:54;6.88;;;1.75;;
50605;SDS011;36557;53.572;10.170;2022-10-18T14:41:25;5.85;;;1.25;;
50605;SDS011;36557;53.572;10.170;2022-10-18T14:43:53;7.65;;;1.48;;
50605;SDS011;36557;53.572;10.170;2022-10-18T14:46:40;9.10;;;1.65;;
50605;SDS011;36557;53.572;10.170;2022-10-18T14:49:08;7.65;;;1.45;;
50605;SDS011;36557;53.572;10.170;2022-10-18T14:51:36;10.98;;;1.65;;
50605;SDS011;36557;53.572;10.170;2022-10-18T14:54:05;9.13;;;1.70;;
50605;SDS011;36557;53.572;10.170;2022-10-18T14:56:36;11.68;;;1.50;;
50605;SDS011;36557;53.572;10.170;2022-10-18T14:59:04;8.55;;;1.58;;
50605;SDS011;36557;53.572;10.170;2022-10-18T15:01:36;6.72;;;1.40;;
50605;SDS011;36557;53.572;10.170;2022-10-18T15:04:09;10.45;;;1.75;;
50605;SDS011;36557;53.572;10.170;2022-10-18T15:06:36;6.50;;;1.42;;
50605;SDS011;36557;53.572;10.170;2022-10-18T15:09:07;9.07;;;2.00;;
50605;SDS011;36557;53.572;10.170;2022-10-18T15:11:35;10.80;;;1.70;;
50605;SDS011;36557;53.572;10.170;2022-10-18T15:14:03;12.35;;;1.65;;
50605;SDS011;36557;53.572;10.170;2022-10-18T15:16:33;11.35;;;1.48;;
50605;SDS011;36557;53.572;10.170;2022-10-18T15:19:04;6.90;;;1.52;;
50605;SDS011;36557;53.572;10.170;2022-10-18T15:21:33;12.38;;;1.70;;
50605;SDS011;36557;53.572;10.170;2022-10-18T15:24:25;9.07;;;1.92;;
50605;SDS011;36557;53.572;10.170;2022-10-18T15:26:56;12.00;;;1.50;;
50605;SDS011;36557;53.572;10.170;2022-10-18T15:29:25;7.00;;;1.33;;
50605;SDS011;36557;53.572;10.170;2022-10-18T15:31:52;9.25;;;1.80;;
50605;SDS011;36557;53.572;10.170;2022-10-18T15:34:24;8.13;;;1.30;;
50605;SDS011;36557;53.572;10.170;2022-10-18T15:36:51;8.15;;;1.42;;
50605;SDS011;36557;53.572;10.170;2022-10-18T15:39:21;7.95;;;1.50;;
50605;SDS011;36557;53.572;10.170;2022-10-18T15:46:47;12.73;;;1.80;;
50605;SDS011;36557;53.572;10.170;2022-10-18T15:51:49;6.57;;;1.10;;
50605;SDS011;36557;53.572;10.170;2022-10-18T15:54:34;4.57;;;1.17;;
50605;SDS011;36557;53.572;10.170;2022-10-18T15:57:07;7.63;;;1.48;;
50605;SDS011;36557;53.572;10.170;2022-10-18T15:59:34;9.40;;;1.30;;
50605;SDS011;36557;53.572;10.170;2022-10-18T16:02:00;8.25;;;1.30;;
50605;SDS011;36557;53.572;10.170;2022-10-18T16:04:30;9.45;;;1.38;;
50605;SDS011;36557;53.572;10.170;2022-10-18T16:06:57;9.70;;;1.50;;
50605;SDS011;36557;53.572;10.170;2022-10-18T16:09:24;12.88;;;1.73;;
50605;SDS011;36557;53.572;10.170;2022-10-18T16:11:51;9.68;;;1.75;;
50605;SDS011;36557;53.572;10.170;2022-10-18T16:14:18;8.00;;;1.15;;
50605;SDS011;36557;53.572;10.170;2022-10-18T16:16:45;12.95;;;1.38;;
50605;SDS011;36557;53.572;10.170;2022-10-18T16:19:18;10.30;;;1.25;;
50605;SDS011;36557;53.572;10.170;2022-10-18T16:21:46;8.98;;;1.40;;
50605;SDS011;36557;53.572;10.170;2022-10-18T16:24:12;5.75;;;1.40;;
50605;SDS011;36557;53.572;10.170;2022-10-18T16:26:38;6.50;;;1.50;;
50605;SDS011;36557;53.572;10.170;2022-10-18T16:29:04;10.23;;;1.50;;
50605;SDS011;36557;53.572;10.170;2022-10-18T16:31:31;7.40;;;1.65;;
50605;SDS011;36557;53.572;10.170;2022-10-18T16:33:58;5.93;;;1.27;;
50605;SDS011;36557;53.572;10.170;2022-10-18T16:36:25;7.22;;;1.15;;
50605;SDS011;36557;53.572;10.170;2022-10-18T16:38:53;4.30;;;1.08;;
50605;SDS011;36557;53.572;10.170;2022-10-18T16:41:19;5.72;;;1.20;;
50605;SDS011;36557;53.572;10.170;2022-10-18T16:43:46;8.25;;;1.38;;
50605;SDS011;36557;53.572;10.170;2022-10-18T16:46:17;8.80;;;2.22;;
50605;SDS011;36557;53.572;10.170;2022-10-18T16:48:46;7.28;;;2.00;;
50605;SDS011;36557;53.572;10.170;2022-10-18T16:51:13;9.13;;;1.23;;
50605;SDS011;36557;53.572;10.170;2022-10-18T16:53:40;7.18;;;1.83;;
50605;SDS011;36557;53.572;10.170;2022-10-18T16:56:10;10.30;;;5.22;;
50605;SDS011;36557;53.572;10.170;2022-10-18T16:58:39;9.18;;;1.73;;
50605;SDS011;36557;53.572;10.170;2022-10-18T17:01:05;7.72;;;1.52;;
50605;SDS011;36557;53.572;10.170;2022-10-18T17:03:31;5.05;;;1.30;;
50605;SDS011;36557;53.572;10.170;2022-10-18T17:05:57;8.70;;;1.80;;
50605;SDS011;36557;53.572;10.170;2022-10-18T17:08:24;5.88;;;1.50;;
50605;SDS011;36557;53.572;10.170;2022-10-18T17:10:53;9.27;;;1.88;;
50605;SDS011;36557;53.572;10.170;2022-10-18T17:13:20;10.00;;;3.40;;
50605;SDS011;36557;53.572;10.170;2022-10-18T17:15:47;10.35;;;2.20;;
50605;SDS011;36557;53.572;10.170;2022-10-18T17:18:15;10.13;;;2.17;;
50605;SDS011;36557;53.572;10.170;2022-10-18T17:20:46;10.52;;;2.45;;
50605;SDS011;36557;53.572;10.170;2022-10-18T17:23:12;10.27;;;2.50;;
50605;SDS011;36557;53.572;10.170;2022-10-18T17:25:38;9.25;;;2.10;;
50605;SDS011;36557;53.572;10.170;2022-10-18T17:28:09;9.18;;;1.92;;